Wichita, KS

8:46 AM CST on February 28, 2015 (GMT -0600)
McConnell Air Force Base | Change Station
CLOSE
Current Station
Airport
Location: McConnell AFB,
Elevation: 1371 ft
Nearby Weather Stations

Elev 1371 ft 37.62 °N, 97.27 °W | Updated 13 minutes ago

Snow
Snow
18 °F
Feels Like 7 °F
N
8
Wind Variable Wind from SE

Today
High -- | Low -- °F
--% Chance of Precip.
Yesterday
High -- | Low -- °F
Precip. -- in
7:02 AM 6:21 PM
Waxing Gibbous, 78% visible
Pressure 30.41 in
Visibility 0.5 miles
Clouds
Windchill 7 °F
Dew Point 14 °F
Humidity 86%
Rainfall 0.02 in
Snow Depth Not available.
UV Not available.
Pollen .40 out of 12
Air Quality Not available.
Flu Activity Not available.
SPECI KIAB 281433Z 13007KT 1/2SM R01/3000FT SN VV005 M08/M10 A3041 RMK AO2A CIG 005V007

More Conditions Fewer Conditions

Pressure 30.41 in
Visibility 0.5 miles
Clouds
Windchill 7 °F
Dew Point 14 °F
Humidity 86%
Rainfall 0.02 in
Snow Depth Not available.
UV Not available.
Pollen .40 out of 12
Air Quality Not available.
Flu Activity Not available.
SPECI KIAB 281433Z 13007KT 1/2SM R01/3000FT SN VV005 M08/M10 A3041 RMK AO2A CIG 005V007

More Conditions Fewer Conditions

10-Day Weather Forecast

Almanac

Astronomy

Feb. 28, 2015 Rise Set
Actual Time
Civil Twilight
Nautical Twilight
Astronomical Twilight
Moon
Length of Visible Light
Length of Day
Tomorrow will be .
, % of the Moon is Illuminated

Today's Extremes

State Highs State Lows

Community

WunderPhotos

Upload Photos

1,801,025 photos uploaded!

WunderBlogs® & News

Nearby

Air Quality

  Air Quality AQ Index Pollutant
Not available.

Snow Depth

Station Depth Elevation

Earthquake Activity

City Distance Mag. Time & Date
Minimum magnitude displayed is 2.5.

Coastal Water Temperatures

Place Temperature

Nearby Weather Stations

Winter Weather Advisory
Statement as of 2:52 AM CST on February 28, 2015

... Winter Weather Advisory remains in effect until noon CST
Sunday...

* timing... from today through midday Sunday.

* Snow accumulations... of 2 to 5 inches are expected by midday
Sunday with the higher amounts affecting southern Kansas.

* Main impacts... widespread accumulating snowfall will result in
reduced visibilities of 1/2 mile to 1 mile at times... along with
snowcovered and slick roads.

Precautionary/preparedness actions...

A Winter Weather Advisory means that periods of winter weather
will cause travel difficulties. Be prepared for slippery roads
and limited visibilities. Use caution while driving.



Jakub